sensor_id;sensor_type;location;lat;lon;timestamp;pressure;altitude;pressure_sealevel;temperature
7389;BMP180;3735;50.136;11.062;2022-10-16T00:01:21;97956.00;;;16.00
7389;BMP180;3735;50.136;11.062;2022-10-16T00:03:49;97954.00;;;15.90
7389;BMP180;3735;50.136;11.062;2022-10-16T00:06:18;97960.00;;;16.00
7389;BMP180;3735;50.136;11.062;2022-10-16T00:08:46;97947.00;;;16.00
7389;BMP180;3735;50.136;11.062;2022-10-16T00:11:16;97953.00;;;16.00
7389;BMP180;3735;50.136;11.062;2022-10-16T00:13:44;97959.00;;;16.00
7389;BMP180;3735;50.136;11.062;2022-10-16T00:16:12;97960.00;;;16.00
7389;BMP180;3735;50.136;11.062;2022-10-16T00:18:39;97967.00;;;16.00
7389;BMP180;3735;50.136;11.062;2022-10-16T00:21:12;97956.00;;;16.00
7389;BMP180;3735;50.136;11.062;2022-10-16T00:23:39;97960.00;;;16.00
7389;BMP180;3735;50.136;11.062;2022-10-16T00:26:10;97943.00;;;16.00
7389;BMP180;3735;50.136;11.062;2022-10-16T00:28:37;97945.00;;;16.00
7389;BMP180;3735;50.136;11.062;2022-10-16T00:31:06;97940.00;;;16.00
7389;BMP180;3735;50.136;11.062;2022-10-16T00:33:33;97944.00;;;16.00
7389;BMP180;3735;50.136;11.062;2022-10-16T00:36:00;97946.00;;;16.00
7389;BMP180;3735;50.136;11.062;2022-10-16T00:38:26;97936.00;;;16.00
7389;BMP180;3735;50.136;11.062;2022-10-16T00:40:52;97950.00;;;16.00
7389;BMP180;3735;50.136;11.062;2022-10-16T00:43:54;97946.00;;;16.00
7389;BMP180;3735;50.136;11.062;2022-10-16T00:46:28;97946.00;;;16.00
7389;BMP180;3735;50.136;11.062;2022-10-16T00:49:16;97951.00;;;16.00
7389;BMP180;3735;50.136;11.062;2022-10-16T00:51:50;97941.00;;;15.90
7389;BMP180;3735;50.136;11.062;2022-10-16T00:54:23;97956.00;;;15.90
7389;BMP180;3735;50.136;11.062;2022-10-16T00:56:51;97966.00;;;16.00
7389;BMP180;3735;50.136;11.062;2022-10-16T00:59:27;97974.00;;;16.00
7389;BMP180;3735;50.136;11.062;2022-10-16T01:01:54;97975.00;;;15.90
7389;BMP180;3735;50.136;11.062;2022-10-16T01:04:22;97967.00;;;16.00
7389;BMP180;3735;50.136;11.062;2022-10-16T01:07:29;97974.00;;;16.00
7389;BMP180;3735;50.136;11.062;2022-10-16T01:18:46;97958.00;;;16.00
7389;BMP180;3735;50.136;11.062;2022-10-16T01:24:31;97959.00;;;15.90
7389;BMP180;3735;50.136;11.062;2022-10-16T01:32:41;97958.00;;;15.90
7389;BMP180;3735;50.136;11.062;2022-10-16T01:38:07;97955.00;;;15.90
7389;BMP180;3735;50.136;11.062;2022-10-16T01:40:39;97966.00;;;16.00
7389;BMP180;3735;50.136;11.062;2022-10-16T01:43:12;97978.00;;;15.90
7389;BMP180;3735;50.136;11.062;2022-10-16T01:45:44;97972.00;;;15.90
7389;BMP180;3735;50.136;11.062;2022-10-16T01:48:14;97979.00;;;16.00
7389;BMP180;3735;50.136;11.062;2022-10-16T01:50:44;97969.00;;;15.90
7389;BMP180;3735;50.136;11.062;2022-10-16T01:53:16;97976.00;;;15.90
7389;BMP180;3735;50.136;11.062;2022-10-16T01:55:46;97982.00;;;15.80
7389;BMP180;3735;50.136;11.062;2022-10-16T01:58:14;97971.00;;;15.70
7389;BMP180;3735;50.136;11.062;2022-10-16T02:00:45;97985.00;;;15.70
7389;BMP180;3735;50.136;11.062;2022-10-16T02:03:16;97967.00;;;15.50
7389;BMP180;3735;50.136;11.062;2022-10-16T02:05:53;97981.00;;;15.50
7389;BMP180;3735;50.136;11.062;2022-10-16T02:08:23;97979.00;;;15.50
7389;BMP180;3735;50.136;11.062;2022-10-16T02:10:49;97987.00;;;15.40
7389;BMP180;3735;50.136;11.062;2022-10-16T02:13:33;97993.00;;;15.40
7389;BMP180;3735;50.136;11.062;2022-10-16T02:16:00;97994.00;;;15.40
7389;BMP180;3735;50.136;11.062;2022-10-16T02:18:26;98000.00;;;15.40
7389;BMP180;3735;50.136;11.062;2022-10-16T02:21:17;98000.00;;;15.40
7389;BMP180;3735;50.136;11.062;2022-10-16T02:24:18;97999.00;;;15.30
7389;BMP180;3735;50.136;11.062;2022-10-16T02:27:11;97993.00;;;15.20
7389;BMP180;3735;50.136;11.062;2022-10-16T02:29:47;97995.00;;;15.20
7389;BMP180;3735;50.136;11.062;2022-10-16T02:32:23;98004.00;;;15.10
7389;BMP180;3735;50.136;11.062;2022-10-16T02:34:51;97998.00;;;15.10
7389;BMP180;3735;50.136;11.062;2022-10-16T02:37:18;98001.00;;;15.10
7389;BMP180;3735;50.136;11.062;2022-10-16T02:39:44;97999.00;;;15.10
7389;BMP180;3735;50.136;11.062;2022-10-16T02:42:13;97990.00;;;15.00
7389;BMP180;3735;50.136;11.062;2022-10-16T02:44:39;97992.00;;;15.00
7389;BMP180;3735;50.136;11.062;2022-10-16T02:47:05;97984.00;;;15.10
7389;BMP180;3735;50.136;11.062;2022-10-16T02:49:31;97989.00;;;15.00
7389;BMP180;3735;50.136;11.062;2022-10-16T02:51:56;97989.00;;;15.00
7389;BMP180;3735;50.136;11.062;2022-10-16T02:54:22;97991.00;;;15.00
7389;BMP180;3735;50.136;11.062;2022-10-16T02:56:48;97992.00;;;15.00
7389;BMP180;3735;50.136;11.062;2022-10-16T02:59:13;97999.00;;;15.00
7389;BMP180;3735;50.136;11.062;2022-10-16T03:01:39;98013.00;;;15.10
7389;BMP180;3735;50.136;11.062;2022-10-16T03:04:05;98022.00;;;15.10
7389;BMP180;3735;50.136;11.062;2022-10-16T03:06:31;98021.00;;;15.10
7389;BMP180;3735;50.136;11.062;2022-10-16T03:08:56;98009.00;;;15.10
7389;BMP180;3735;50.136;11.062;2022-10-16T03:11:22;98013.00;;;15.00
7389;BMP180;3735;50.136;11.062;2022-10-16T03:13:48;98012.00;;;15.00
7389;BMP180;3735;50.136;11.062;2022-10-16T03:16:14;98003.00;;;15.00
7389;BMP180;3735;50.136;11.062;2022-10-16T03:18:39;98004.00;;;15.00
7389;BMP180;3735;50.136;11.062;2022-10-16T03:21:05;98008.00;;;15.00
7389;BMP180;3735;50.136;11.062;2022-10-16T03:23:31;98008.00;;;15.00
7389;BMP180;3735;50.136;11.062;2022-10-16T03:25:56;98024.00;;;15.00
7389;BMP180;3735;50.136;11.062;2022-10-16T03:28:22;98018.00;;;15.00
7389;BMP180;3735;50.136;11.062;2022-10-16T03:30:48;98024.00;;;15.00
7389;BMP180;3735;50.136;11.062;2022-10-16T03:33:14;98026.00;;;14.90
7389;BMP180;3735;50.136;11.062;2022-10-16T03:35:39;98021.00;;;14.90
7389;BMP180;3735;50.136;11.062;2022-10-16T03:38:05;98022.00;;;15.00
7389;BMP180;3735;50.136;11.062;2022-10-16T03:40:31;98015.00;;;15.00
7389;BMP180;3735;50.136;11.062;2022-10-16T03:42:59;98007.00;;;15.00
7389;BMP180;3735;50.136;11.062;2022-10-16T03:45:25;98021.00;;;14.90
7389;BMP180;3735;50.136;11.062;2022-10-16T03:47:52;98017.00;;;15.00
7389;BMP180;3735;50.136;11.062;2022-10-16T03:50:18;98024.00;;;15.00
7389;BMP180;3735;50.136;11.062;2022-10-16T03:52:43;98016.00;;;15.00
7389;BMP180;3735;50.136;11.062;2022-10-16T03:55:09;98024.00;;;15.00
7389;BMP180;3735;50.136;11.062;2022-10-16T03:57:35;98018.00;;;15.00
7389;BMP180;3735;50.136;11.062;2022-10-16T04:00:01;98014.00;;;15.00
7389;BMP180;3735;50.136;11.062;2022-10-16T04:02:26;98026.00;;;15.00
7389;BMP180;3735;50.136;11.062;2022-10-16T04:04:52;98031.00;;;15.00
7389;BMP180;3735;50.136;11.062;2022-10-16T04:07:18;98005.00;;;15.00
7389;BMP180;3735;50.136;11.062;2022-10-16T04:09:44;98016.00;;;15.00
7389;BMP180;3735;50.136;11.062;2022-10-16T04:12:10;98023.00;;;15.00
7389;BMP180;3735;50.136;11.062;2022-10-16T04:14:35;98027.00;;;15.00
7389;BMP180;3735;50.136;11.062;2022-10-16T04:17:01;98032.00;;;15.10
7389;BMP180;3735;50.136;11.062;2022-10-16T04:19:27;98031.00;;;15.00
7389;BMP180;3735;50.136;11.062;2022-10-16T04:21:52;98027.00;;;15.00
7389;BMP180;3735;50.136;11.062;2022-10-16T04:24:18;98033.00;;;15.00
7389;BMP180;3735;50.136;11.062;2022-10-16T04:26:44;98034.00;;;15.00
7389;BMP180;3735;50.136;11.062;2022-10-16T04:29:10;98031.00;;;15.00
7389;BMP180;3735;50.136;11.062;2022-10-16T04:31:35;98040.00;;;15.10
7389;BMP180;3735;50.136;11.062;2022-10-16T04:34:01;98034.00;;;15.00
7389;BMP180;3735;50.136;11.062;2022-10-16T04:36:27;98037.00;;;15.00
7389;BMP180;3735;50.136;11.062;2022-10-16T04:38:52;98030.00;;;15.00
7389;BMP180;3735;50.136;11.062;2022-10-16T04:41:19;98041.00;;;14.90
7389;BMP180;3735;50.136;11.062;2022-10-16T04:43:44;98042.00;;;14.90
7389;BMP180;3735;50.136;11.062;2022-10-16T04:46:10;98045.00;;;14.90
7389;BMP180;3735;50.136;11.062;2022-10-16T04:48:36;98041.00;;;14.90
7389;BMP180;3735;50.136;11.062;2022-10-16T04:51:02;98040.00;;;14.90
7389;BMP180;3735;50.136;11.062;2022-10-16T04:53:27;98053.00;;;14.90
7389;BMP180;3735;50.136;11.062;2022-10-16T04:55:53;98050.00;;;14.90
7389;BMP180;3735;50.136;11.062;2022-10-16T04:58:19;98052.00;;;14.90
7389;BMP180;3735;50.136;11.062;2022-10-16T05:00:45;98046.00;;;14.90
7389;BMP180;3735;50.136;11.062;2022-10-16T05:03:13;98050.00;;;14.90
7389;BMP180;3735;50.136;11.062;2022-10-16T05:05:45;98060.00;;;14.90
7389;BMP180;3735;50.136;11.062;2022-10-16T05:08:13;98055.00;;;14.90
7389;BMP180;3735;50.136;11.062;2022-10-16T05:10:41;98060.00;;;14.90
7389;BMP180;3735;50.136;11.062;2022-10-16T05:13:07;98066.00;;;14.90
7389;BMP180;3735;50.136;11.062;2022-10-16T05:15:34;98062.00;;;14.90
7389;BMP180;3735;50.136;11.062;2022-10-16T05:17:59;98065.00;;;14.90
7389;BMP180;3735;50.136;11.062;2022-10-16T05:20:25;98060.00;;;14.90
7389;BMP180;3735;50.136;11.062;2022-10-16T05:22:51;98061.00;;;14.90
7389;BMP180;3735;50.136;11.062;2022-10-16T05:25:17;98065.00;;;14.90
7389;BMP180;3735;50.136;11.062;2022-10-16T05:27:42;98067.00;;;14.80
7389;BMP180;3735;50.136;11.062;2022-10-16T05:30:09;98071.00;;;14.90
7389;BMP180;3735;50.136;11.062;2022-10-16T05:32:34;98071.00;;;14.80
7389;BMP180;3735;50.136;11.062;2022-10-16T05:35:00;98064.00;;;14.90
7389;BMP180;3735;50.136;11.062;2022-10-16T05:37:27;98075.00;;;14.80
7389;BMP180;3735;50.136;11.062;2022-10-16T05:39:53;98066.00;;;14.90
7389;BMP180;3735;50.136;11.062;2022-10-16T05:42:19;98073.00;;;14.80
7389;BMP180;3735;50.136;11.062;2022-10-16T05:44:44;98076.00;;;14.80
7389;BMP180;3735;50.136;11.062;2022-10-16T05:47:12;98083.00;;;14.80
7389;BMP180;3735;50.136;11.062;2022-10-16T05:49:39;98074.00;;;14.90
7389;BMP180;3735;50.136;11.062;2022-10-16T05:52:05;98061.00;;;14.90
7389;BMP180;3735;50.136;11.062;2022-10-16T05:54:31;98051.00;;;14.90
7389;BMP180;3735;50.136;11.062;2022-10-16T05:56:57;98041.00;;;14.80
7389;BMP180;3735;50.136;11.062;2022-10-16T05:59:22;98072.00;;;14.80
7389;BMP180;3735;50.136;11.062;2022-10-16T06:01:48;98083.00;;;14.80
7389;BMP180;3735;50.136;11.062;2022-10-16T06:04:14;98076.00;;;14.80
7389;BMP180;3735;50.136;11.062;2022-10-16T06:06:40;98084.00;;;14.80
7389;BMP180;3735;50.136;11.062;2022-10-16T06:09:06;98091.00;;;14.80
7389;BMP180;3735;50.136;11.062;2022-10-16T06:11:33;98100.00;;;14.80
7389;BMP180;3735;50.136;11.062;2022-10-16T06:14:01;98092.00;;;14.80
7389;BMP180;3735;50.136;11.062;2022-10-16T06:16:36;98110.00;;;14.90
7389;BMP180;3735;50.136;11.062;2022-10-16T06:19:03;98088.00;;;15.00
7389;BMP180;3735;50.136;11.062;2022-10-16T06:21:32;98089.00;;;15.00
7389;BMP180;3735;50.136;11.062;2022-10-16T06:23:59;98107.00;;;15.00
7389;BMP180;3735;50.136;11.062;2022-10-16T06:26:27;98117.00;;;15.00
7389;BMP180;3735;50.136;11.062;2022-10-16T06:28:58;98104.00;;;15.10
7389;BMP180;3735;50.136;11.062;2022-10-16T06:31:26;98099.00;;;15.10
7389;BMP180;3735;50.136;11.062;2022-10-16T06:33:55;98113.00;;;15.10
7389;BMP180;3735;50.136;11.062;2022-10-16T06:36:21;98115.00;;;15.10
7389;BMP180;3735;50.136;11.062;2022-10-16T06:38:48;98123.00;;;15.00
7389;BMP180;3735;50.136;11.062;2022-10-16T06:41:20;98135.00;;;15.00
7389;BMP180;3735;50.136;11.062;2022-10-16T06:43:47;98127.00;;;15.10
7389;BMP180;3735;50.136;11.062;2022-10-16T06:46:16;98135.00;;;15.10
7389;BMP180;3735;50.136;11.062;2022-10-16T06:48:43;98131.00;;;15.10
7389;BMP180;3735;50.136;11.062;2022-10-16T06:53:40;98143.00;;;15.20
7389;BMP180;3735;50.136;11.062;2022-10-16T06:56:22;98148.00;;;15.30
7389;BMP180;3735;50.136;11.062;2022-10-16T06:58:48;98148.00;;;15.40
7389;BMP180;3735;50.136;11.062;2022-10-16T07:01:16;98141.00;;;15.50
7389;BMP180;3735;50.136;11.062;2022-10-16T07:03:45;98137.00;;;15.60
7389;BMP180;3735;50.136;11.062;2022-10-16T07:06:15;98148.00;;;15.70
7389;BMP180;3735;50.136;11.062;2022-10-16T07:08:44;98150.00;;;15.80
7389;BMP180;3735;50.136;11.062;2022-10-16T07:11:14;98157.00;;;15.80
7389;BMP180;3735;50.136;11.062;2022-10-16T07:13:42;98166.00;;;15.70
7389;BMP180;3735;50.136;11.062;2022-10-16T07:16:15;98161.00;;;15.80
7389;BMP180;3735;50.136;11.062;2022-10-16T07:18:43;98170.00;;;16.00
7389;BMP180;3735;50.136;11.062;2022-10-16T07:21:17;98178.00;;;16.00
7389;BMP180;3735;50.136;11.062;2022-10-16T07:23:44;98176.00;;;16.10
7389;BMP180;3735;50.136;11.062;2022-10-16T07:26:11;98182.00;;;16.10
7389;BMP180;3735;50.136;11.062;2022-10-16T07:28:37;98185.00;;;16.10
7389;BMP180;3735;50.136;11.062;2022-10-16T07:31:11;98194.00;;;16.30
7389;BMP180;3735;50.136;11.062;2022-10-16T07:33:40;98171.00;;;16.40
7389;BMP180;3735;50.136;11.062;2022-10-16T07:36:08;98187.00;;;16.60
7389;BMP180;3735;50.136;11.062;2022-10-16T07:38:34;98192.00;;;16.90
7389;BMP180;3735;50.136;11.062;2022-10-16T07:41:04;98194.00;;;17.30
7389;BMP180;3735;50.136;11.062;2022-10-16T07:43:30;98199.00;;;17.50
7389;BMP180;3735;50.136;11.062;2022-10-16T07:45:57;98188.00;;;17.50
7389;BMP180;3735;50.136;11.062;2022-10-16T07:48:24;98190.00;;;18.00
7389;BMP180;3735;50.136;11.062;2022-10-16T07:50:51;98207.00;;;18.90
7389;BMP180;3735;50.136;11.062;2022-10-16T07:53:17;98200.00;;;20.40
7389;BMP180;3735;50.136;11.062;2022-10-16T07:55:43;98189.00;;;21.30
7389;BMP180;3735;50.136;11.062;2022-10-16T07:58:09;98196.00;;;22.90
7389;BMP180;3735;50.136;11.062;2022-10-16T08:00:37;98195.00;;;24.20
7389;BMP180;3735;50.136;11.062;2022-10-16T08:03:03;98188.00;;;23.70
7389;BMP180;3735;50.136;11.062;2022-10-16T08:05:32;98191.00;;;24.50
7389;BMP180;3735;50.136;11.062;2022-10-16T08:07:58;98205.00;;;23.40
7389;BMP180;3735;50.136;11.062;2022-10-16T08:10:26;98187.00;;;22.80
7389;BMP180;3735;50.136;11.062;2022-10-16T08:12:53;98207.00;;;22.20
7389;BMP180;3735;50.136;11.062;2022-10-16T08:15:19;98199.00;;;22.50
7389;BMP180;3735;50.136;11.062;2022-10-16T08:17:59;98183.00;;;23.40
7389;BMP180;3735;50.136;11.062;2022-10-16T08:20:26;98204.00;;;23.50
7389;BMP180;3735;50.136;11.062;2022-10-16T08:22:53;98212.00;;;23.20
7389;BMP180;3735;50.136;11.062;2022-10-16T08:25:20;98215.00;;;23.90
7389;BMP180;3735;50.136;11.062;2022-10-16T08:27:46;98214.00;;;23.80
7389;BMP180;3735;50.136;11.062;2022-10-16T08:30:13;98221.00;;;23.50
7389;BMP180;3735;50.136;11.062;2022-10-16T08:32:39;98228.00;;;22.30
7389;BMP180;3735;50.136;11.062;2022-10-16T08:35:07;98230.00;;;21.50
7389;BMP180;3735;50.136;11.062;2022-10-16T08:37:33;98247.00;;;20.80
7389;BMP180;3735;50.136;11.062;2022-10-16T08:39:59;98250.00;;;20.60
7389;BMP180;3735;50.136;11.062;2022-10-16T08:48:57;98267.00;;;20.60
7389;BMP180;3735;50.136;11.062;2022-10-16T08:51:34;98274.00;;;20.20
7389;BMP180;3735;50.136;11.062;2022-10-16T08:54:28;98268.00;;;19.80
7389;BMP180;3735;50.136;11.062;2022-10-16T08:57:04;98268.00;;;19.40
7389;BMP180;3735;50.136;11.062;2022-10-16T08:59:33;98270.00;;;19.30
7389;BMP180;3735;50.136;11.062;2022-10-16T09:01:59;98271.00;;;19.10
7389;BMP180;3735;50.136;11.062;2022-10-16T09:10:51;98279.00;;;19.10
7389;BMP180;3735;50.136;11.062;2022-10-16T09:13:43;98285.00;;;19.30
7389;BMP180;3735;50.136;11.062;2022-10-16T09:16:24;98283.00;;;19.30
7389;BMP180;3735;50.136;11.062;2022-10-16T09:19:00;98286.00;;;19.20
7389;BMP180;3735;50.136;11.062;2022-10-16T09:21:45;98289.00;;;19.20
7389;BMP180;3735;50.136;11.062;2022-10-16T09:24:17;98289.00;;;19.30
7389;BMP180;3735;50.136;11.062;2022-10-16T09:26:44;98290.00;;;19.20
7389;BMP180;3735;50.136;11.062;2022-10-16T09:29:19;98299.00;;;19.10
7389;BMP180;3735;50.136;11.062;2022-10-16T09:31:46;98299.00;;;19.00
7389;BMP180;3735;50.136;11.062;2022-10-16T09:34:32;98289.00;;;19.00
7389;BMP180;3735;50.136;11.062;2022-10-16T09:37:05;98300.00;;;19.20
7389;BMP180;3735;50.136;11.062;2022-10-16T09:39:52;98309.00;;;19.30
7389;BMP180;3735;50.136;11.062;2022-10-16T09:42:22;98314.00;;;19.20
7389;BMP180;3735;50.136;11.062;2022-10-16T09:44:52;98328.00;;;19.30
7389;BMP180;3735;50.136;11.062;2022-10-16T09:47:23;98319.00;;;19.30
7389;BMP180;3735;50.136;11.062;2022-10-16T09:49:55;98321.00;;;19.40
7389;BMP180;3735;50.136;11.062;2022-10-16T09:52:23;98312.00;;;19.40
7389;BMP180;3735;50.136;11.062;2022-10-16T09:55:02;98319.00;;;19.50
7389;BMP180;3735;50.136;11.062;2022-10-16T09:57:28;98310.00;;;19.80
7389;BMP180;3735;50.136;11.062;2022-10-16T09:59:57;98316.00;;;20.10
7389;BMP180;3735;50.136;11.062;2022-10-16T10:02:44;98320.00;;;20.60
7389;BMP180;3735;50.136;11.062;2022-10-16T10:05:28;98326.00;;;21.00
7389;BMP180;3735;50.136;11.062;2022-10-16T10:07:58;98321.00;;;21.00
7389;BMP180;3735;50.136;11.062;2022-10-16T10:10:28;98319.00;;;21.40
7389;BMP180;3735;50.136;11.062;2022-10-16T10:12:55;98318.00;;;21.90
7389;BMP180;3735;50.136;11.062;2022-10-16T10:15:23;98327.00;;;22.50
7389;BMP180;3735;50.136;11.062;2022-10-16T10:17:57;98323.00;;;23.30
7389;BMP180;3735;50.136;11.062;2022-10-16T10:20:34;98304.00;;;24.10
7389;BMP180;3735;50.136;11.062;2022-10-16T10:36:40;98317.00;;;23.80
7389;BMP180;3735;50.136;11.062;2022-10-16T10:39:14;98324.00;;;23.30
7389;BMP180;3735;50.136;11.062;2022-10-16T10:54:13;98344.00;;;22.00
7389;BMP180;3735;50.136;11.062;2022-10-16T11:06:30;98365.00;;;20.10
7389;BMP180;3735;50.136;11.062;2022-10-16T11:09:06;98369.00;;;19.80
7389;BMP180;3735;50.136;11.062;2022-10-16T11:11:42;98372.00;;;19.20
7389;BMP180;3735;50.136;11.062;2022-10-16T11:14:19;98376.00;;;18.90
7389;BMP180;3735;50.136;11.062;2022-10-16T11:16:56;98367.00;;;18.50
7389;BMP180;3735;50.136;11.062;2022-10-16T11:19:48;98364.00;;;18.20
7389;BMP180;3735;50.136;11.062;2022-10-16T11:25:23;98399.00;;;18.40
7389;BMP180;3735;50.136;11.062;2022-10-16T11:28:23;98412.00;;;18.20
7389;BMP180;3735;50.136;11.062;2022-10-16T11:36:49;98425.00;;;17.90
7389;BMP180;3735;50.136;11.062;2022-10-16T11:41:54;98406.00;;;18.20
7389;BMP180;3735;50.136;11.062;2022-10-16T11:45:07;98396.00;;;18.70
7389;BMP180;3735;50.136;11.062;2022-10-16T11:47:50;98394.00;;;19.30
7389;BMP180;3735;50.136;11.062;2022-10-16T11:53:49;98382.00;;;19.00
7389;BMP180;3735;50.136;11.062;2022-10-16T11:56:20;98385.00;;;18.90
7389;BMP180;3735;50.136;11.062;2022-10-16T11:58:52;98380.00;;;18.60
7389;BMP180;3735;50.136;11.062;2022-10-16T12:01:30;98388.00;;;18.70
7389;BMP180;3735;50.136;11.062;2022-10-16T12:04:19;98391.00;;;18.80
7389;BMP180;3735;50.136;11.062;2022-10-16T12:07:12;98385.00;;;18.90
7389;BMP180;3735;50.136;11.062;2022-10-16T12:09:41;98390.00;;;19.00
7389;BMP180;3735;50.136;11.062;2022-10-16T12:15:24;98396.00;;;19.20
7389;BMP180;3735;50.136;11.062;2022-10-16T12:17:51;98401.00;;;19.30
7389;BMP180;3735;50.136;11.062;2022-10-16T12:22:51;98393.00;;;20.90
7389;BMP180;3735;50.136;11.062;2022-10-16T12:25:33;98391.00;;;20.80
7389;BMP180;3735;50.136;11.062;2022-10-16T12:30:33;98385.00;;;23.80
7389;BMP180;3735;50.136;11.062;2022-10-16T12:33:20;98384.00;;;24.80
7389;BMP180;3735;50.136;11.062;2022-10-16T12:35:47;98377.00;;;25.10
7389;BMP180;3735;50.136;11.062;2022-10-16T12:38:25;98373.00;;;24.90
7389;BMP180;3735;50.136;11.062;2022-10-16T12:41:07;98355.00;;;25.10
7389;BMP180;3735;50.136;11.062;2022-10-16T12:43:46;98363.00;;;24.60
7389;BMP180;3735;50.136;11.062;2022-10-16T12:48:42;98359.00;;;25.30
7389;BMP180;3735;50.136;11.062;2022-10-16T12:53:38;98366.00;;;27.20
7389;BMP180;3735;50.136;11.062;2022-10-16T13:19:52;98369.00;;;28.20
7389;BMP180;3735;50.136;11.062;2022-10-16T13:28:32;98383.00;;;29.80
7389;BMP180;3735;50.136;11.062;2022-10-16T13:31:00;98375.00;;;29.50
7389;BMP180;3735;50.136;11.062;2022-10-16T13:33:36;98386.00;;;30.40
7389;BMP180;3735;50.136;11.062;2022-10-16T13:36:04;98388.00;;;29.90
7389;BMP180;3735;50.136;11.062;2022-10-16T13:38:35;98380.00;;;29.20
7389;BMP180;3735;50.136;11.062;2022-10-16T13:41:05;98394.00;;;29.30
7389;BMP180;3735;50.136;11.062;2022-10-16T13:43:40;98391.00;;;28.20
7389;BMP180;3735;50.136;11.062;2022-10-16T13:46:19;98394.00;;;28.30
7389;BMP180;3735;50.136;11.062;2022-10-16T13:48:57;98407.00;;;27.40
7389;BMP180;3735;50.136;11.062;2022-10-16T13:51:24;98412.00;;;26.70
7389;BMP180;3735;50.136;11.062;2022-10-16T13:53:50;98406.00;;;26.70
7389;BMP180;3735;50.136;11.062;2022-10-16T13:56:21;98428.00;;;26.40
7389;BMP180;3735;50.136;11.062;2022-10-16T13:59:03;98428.00;;;26.80
7389;BMP180;3735;50.136;11.062;2022-10-16T14:01:43;98431.00;;;27.10
7389;BMP180;3735;50.136;11.062;2022-10-16T14:04:12;98437.00;;;26.80
7389;BMP180;3735;50.136;11.062;2022-10-16T14:06:45;98436.00;;;26.90
7389;BMP180;3735;50.136;11.062;2022-10-16T14:09:27;98442.00;;;26.40
7389;BMP180;3735;50.136;11.062;2022-10-16T14:11:59;98437.00;;;26.70
7389;BMP180;3735;50.136;11.062;2022-10-16T14:14:34;98438.00;;;26.60
7389;BMP180;3735;50.136;11.062;2022-10-16T14:17:02;98440.00;;;26.90
7389;BMP180;3735;50.136;11.062;2022-10-16T14:19:30;98429.00;;;27.70
7389;BMP180;3735;50.136;11.062;2022-10-16T14:21:58;98428.00;;;27.50
7389;BMP180;3735;50.136;11.062;2022-10-16T14:24:34;98423.00;;;27.70
7389;BMP180;3735;50.136;11.062;2022-10-16T14:27:01;98424.00;;;28.30
7389;BMP180;3735;50.136;11.062;2022-10-16T14:29:29;98428.00;;;28.70
7389;BMP180;3735;50.136;11.062;2022-10-16T14:32:01;98427.00;;;28.50
7389;BMP180;3735;50.136;11.062;2022-10-16T14:34:34;98434.00;;;28.40
7389;BMP180;3735;50.136;11.062;2022-10-16T14:39:42;98455.00;;;27.20
7389;BMP180;3735;50.136;11.062;2022-10-16T14:42:16;98464.00;;;27.00
7389;BMP180;3735;50.136;11.062;2022-10-16T14:44:45;98460.00;;;26.50
7389;BMP180;3735;50.136;11.062;2022-10-16T14:47:18;98473.00;;;26.00
7389;BMP180;3735;50.136;11.062;2022-10-16T14:49:51;98464.00;;;25.40
7389;BMP180;3735;50.136;11.062;2022-10-16T14:52:18;98465.00;;;24.40
7389;BMP180;3735;50.136;11.062;2022-10-16T14:54:48;98472.00;;;23.80
7389;BMP180;3735;50.136;11.062;2022-10-16T14:57:22;98480.00;;;23.00
7389;BMP180;3735;50.136;11.062;2022-10-16T14:59:49;98477.00;;;22.70
7389;BMP180;3735;50.136;11.062;2022-10-16T15:02:30;98479.00;;;22.40
7389;BMP180;3735;50.136;11.062;2022-10-16T15:04:57;98482.00;;;22.10
7389;BMP180;3735;50.136;11.062;2022-10-16T15:07:24;98477.00;;;21.80
7389;BMP180;3735;50.136;11.062;2022-10-16T15:09:50;98448.00;;;21.50
7389;BMP180;3735;50.136;11.062;2022-10-16T15:12:17;98479.00;;;21.20
7389;BMP180;3735;50.136;11.062;2022-10-16T15:14:43;98483.00;;;20.90
7389;BMP180;3735;50.136;11.062;2022-10-16T15:17:10;98481.00;;;20.60
7389;BMP180;3735;50.136;11.062;2022-10-16T15:19:36;98486.00;;;20.40
7389;BMP180;3735;50.136;11.062;2022-10-16T15:22:02;98485.00;;;20.00
7389;BMP180;3735;50.136;11.062;2022-10-16T15:24:28;98494.00;;;19.70
7389;BMP180;3735;50.136;11.062;2022-10-16T15:26:54;98478.00;;;19.50
7389;BMP180;3735;50.136;11.062;2022-10-16T15:29:20;98495.00;;;19.30
7389;BMP180;3735;50.136;11.062;2022-10-16T15:31:45;98499.00;;;19.20
7389;BMP180;3735;50.136;11.062;2022-10-16T15:34:14;98498.00;;;19.10
7389;BMP180;3735;50.136;11.062;2022-10-16T15:36:40;98494.00;;;19.00
7389;BMP180;3735;50.136;11.062;2022-10-16T15:41:40;98488.00;;;18.90
7389;BMP180;3735;50.136;11.062;2022-10-16T15:44:06;98489.00;;;18.80
7389;BMP180;3735;50.136;11.062;2022-10-16T15:46:32;98491.00;;;18.70
7389;BMP180;3735;50.136;11.062;2022-10-16T15:49:00;98489.00;;;18.60
7389;BMP180;3735;50.136;11.062;2022-10-16T15:51:27;98497.00;;;18.50
7389;BMP180;3735;50.136;11.062;2022-10-16T15:53:56;98495.00;;;18.40
7389;BMP180;3735;50.136;11.062;2022-10-16T15:56:23;98488.00;;;18.30
7389;BMP180;3735;50.136;11.062;2022-10-16T15:58:52;98488.00;;;18.30
7389;BMP180;3735;50.136;11.062;2022-10-16T16:01:21;98488.00;;;18.10
7389;BMP180;3735;50.136;11.062;2022-10-16T16:03:47;98488.00;;;18.00
7389;BMP180;3735;50.136;11.062;2022-10-16T16:06:14;98490.00;;;18.10
7389;BMP180;3735;50.136;11.062;2022-10-16T16:08:40;98487.00;;;18.00
7389;BMP180;3735;50.136;11.062;2022-10-16T16:11:12;98497.00;;;17.90
7389;BMP180;3735;50.136;11.062;2022-10-16T16:13:39;98504.00;;;17.80
7389;BMP180;3735;50.136;11.062;2022-10-16T16:16:08;98499.00;;;17.80
7389;BMP180;3735;50.136;11.062;2022-10-16T16:18:35;98491.00;;;17.70
7389;BMP180;3735;50.136;11.062;2022-10-16T16:21:02;98504.00;;;17.60
7389;BMP180;3735;50.136;11.062;2022-10-16T16:23:27;98506.00;;;17.60
7389;BMP180;3735;50.136;11.062;2022-10-16T16:26:11;98510.00;;;17.50
7389;BMP180;3735;50.136;11.062;2022-10-16T16:28:39;98504.00;;;17.40
7389;BMP180;3735;50.136;11.062;2022-10-16T16:31:06;98510.00;;;17.30
7389;BMP180;3735;50.136;11.062;2022-10-16T16:33:32;98507.00;;;17.40
7389;BMP180;3735;50.136;11.062;2022-10-16T16:36:05;98501.00;;;17.30
7389;BMP180;3735;50.136;11.062;2022-10-16T16:38:32;98500.00;;;17.20
7389;BMP180;3735;50.136;11.062;2022-10-16T16:40:59;98512.00;;;17.20
7389;BMP180;3735;50.136;11.062;2022-10-16T16:43:26;98521.00;;;17.20
7389;BMP180;3735;50.136;11.062;2022-10-16T16:45:54;98511.00;;;17.20
7389;BMP180;3735;50.136;11.062;2022-10-16T16:48:20;98519.00;;;17.10
7389;BMP180;3735;50.136;11.062;2022-10-16T16:50:46;98512.00;;;17.20
7389;BMP180;3735;50.136;11.062;2022-10-16T16:53:12;98509.00;;;17.10